Terminal Aerodrome Forecast
Issued by NWS

Home | Current Version | Previous Version | Text Only | Print | Product List | Glossary On
Versions: 1 2 3 4 5 6 7 8 9 10 11 12 13 14 15 16
000
FTUS44 KCRP 230520
TAFLRD
TAF
KLRD 230520Z 2306/2406 14010KT P6SM SCT035 BKN200
     FM230900 12008KT P6SM OVC015
      TEMPO 2310/2314 BKN009
     FM231500 15011KT P6SM VCSH BKN025
     FM231700 15016G22KT P6SM VCTS BKN035CB OVC150 PROB30 2319/2324
      VRB15G35KT 3SM +TSRA BR OVC015CB
     FM240200 13020KT P6SM VCTS SCT020CB BKN035=

USA.gov is the U.S. government's official web portal to all federal, state and local government web resources and services.